Bradford County (N27)
Towanda, PA
Field Elevation: 730
Lat: 41°44.40N  Long: 76°26.83W
CTAF/Unicom Freq: 123.0000
   
     For Weather-by-Phone, call (570) 265-1024
Weather Advisories
4/24/2014 18:33 Z
Altimeter 30.05" Hg
Wind 360° @ 14 KT
Gusts 20 KT
Visibility 10 SM
Ceiling CLR
Temperature 12° C (54° F)
Dewpoint -11° C (12° F)
Relative Humidity 20%
Density Altitude --
Condensation Altitude 12,100 feet
  Wind and Runways
Indicated Runway = 5
History
 
 
More Info
All DigiWx sites map
NOAA Forecast
 
Airport IQ 5010
(LHV) Lock Haven
(PS81) Robert Packer Hospital
 
about DigiWx
 
FAA Disclaimer: The data displayed is for advisory purposes only and is not to be used for flight planning or operations. For official data, please call (570) 265-1024 to hear the current automated AWOS voice message.
  METAR N27 241833Z AUTO 36014G20KT 10SM CLR 12/M11 A3005